sensor_id;sensor_type;location;lat;lon;timestamp;P1;durP1;ratioP1;P2;durP2;ratioP2
72924;SDS011;61070;50.794;7.054;2023-09-08T00:00:30;9.77;;;6.20;;
72924;SDS011;61070;50.794;7.054;2023-09-08T00:01:30;11.50;;;6.63;;
72924;SDS011;61070;50.794;7.054;2023-09-08T00:02:31;9.15;;;6.85;;
72924;SDS011;61070;50.794;7.054;2023-09-08T00:03:31;10.13;;;6.07;;
72924;SDS011;61070;50.794;7.054;2023-09-08T00:04:31;11.10;;;5.38;;
72924;SDS011;61070;50.794;7.054;2023-09-08T00:05:33;11.52;;;6.45;;
72924;SDS011;61070;50.794;7.054;2023-09-08T00:06:33;9.50;;;5.78;;
72924;SDS011;61070;50.794;7.054;2023-09-08T00:07:33;8.05;;;5.90;;
72924;SDS011;61070;50.794;7.054;2023-09-08T00:08:33;10.30;;;6.50;;
72924;SDS011;61070;50.794;7.054;2023-09-08T00:09:34;9.40;;;6.10;;
72924;SDS011;61070;50.794;7.054;2023-09-08T00:10:34;8.52;;;6.22;;
72924;SDS011;61070;50.794;7.054;2023-09-08T00:11:34;10.60;;;6.75;;
72924;SDS011;61070;50.794;7.054;2023-09-08T00:12:34;11.38;;;6.38;;
72924;SDS011;61070;50.794;7.054;2023-09-08T00:13:35;10.93;;;6.47;;
72924;SDS011;61070;50.794;7.054;2023-09-08T00:14:35;10.30;;;6.55;;
72924;SDS011;61070;50.794;7.054;2023-09-08T00:15:36;13.73;;;6.07;;
72924;SDS011;61070;50.794;7.054;2023-09-08T00:16:36;8.32;;;6.03;;
72924;SDS011;61070;50.794;7.054;2023-09-08T00:17:39;9.80;;;6.50;;
72924;SDS011;61070;50.794;7.054;2023-09-08T00:18:39;9.18;;;5.97;;
72924;SDS011;61070;50.794;7.054;2023-09-08T00:19:39;10.50;;;6.15;;
72924;SDS011;61070;50.794;7.054;2023-09-08T00:20:41;7.88;;;5.72;;
72924;SDS011;61070;50.794;7.054;2023-09-08T00:21:42;9.27;;;6.40;;
72924;SDS011;61070;50.794;7.054;2023-09-08T00:22:43;10.75;;;6.30;;
72924;SDS011;61070;50.794;7.054;2023-09-08T00:23:43;9.00;;;5.95;;
72924;SDS011;61070;50.794;7.054;2023-09-08T00:24:43;9.32;;;6.38;;
72924;SDS011;61070;50.794;7.054;2023-09-08T00:25:44;7.63;;;5.45;;
72924;SDS011;61070;50.794;7.054;2023-09-08T00:26:44;9.00;;;6.05;;
72924;SDS011;61070;50.794;7.054;2023-09-08T00:27:45;9.30;;;6.05;;
72924;SDS011;61070;50.794;7.054;2023-09-08T00:28:45;8.25;;;5.50;;
72924;SDS011;61070;50.794;7.054;2023-09-08T00:29:45;12.35;;;6.72;;
72924;SDS011;61070;50.794;7.054;2023-09-08T00:30:46;8.00;;;6.60;;
72924;SDS011;61070;50.794;7.054;2023-09-08T00:31:46;10.63;;;5.70;;
72924;SDS011;61070;50.794;7.054;2023-09-08T00:32:46;10.30;;;6.28;;
72924;SDS011;61070;50.794;7.054;2023-09-08T00:33:46;13.95;;;6.43;;
72924;SDS011;61070;50.794;7.054;2023-09-08T00:34:47;8.95;;;6.75;;
72924;SDS011;61070;50.794;7.054;2023-09-08T00:35:50;11.63;;;6.60;;
72924;SDS011;61070;50.794;7.054;2023-09-08T00:36:51;11.88;;;6.15;;
72924;SDS011;61070;50.794;7.054;2023-09-08T00:37:51;14.48;;;7.05;;
72924;SDS011;61070;50.794;7.054;2023-09-08T00:38:52;8.50;;;5.95;;
72924;SDS011;61070;50.794;7.054;2023-09-08T00:39:52;11.38;;;5.70;;
72924;SDS011;61070;50.794;7.054;2023-09-08T00:40:52;11.77;;;6.90;;
72924;SDS011;61070;50.794;7.054;2023-09-08T00:41:53;10.20;;;6.55;;
72924;SDS011;61070;50.794;7.054;2023-09-08T00:42:53;12.88;;;6.85;;
72924;SDS011;61070;50.794;7.054;2023-09-08T00:43:54;10.27;;;7.10;;
72924;SDS011;61070;50.794;7.054;2023-09-08T00:44:54;7.68;;;6.13;;
72924;SDS011;61070;50.794;7.054;2023-09-08T00:45:54;10.02;;;7.13;;
72924;SDS011;61070;50.794;7.054;2023-09-08T00:46:56;9.27;;;6.53;;
72924;SDS011;61070;50.794;7.054;2023-09-08T00:47:56;15.50;;;6.93;;
72924;SDS011;61070;50.794;7.054;2023-09-08T00:48:56;10.77;;;7.10;;
72924;SDS011;61070;50.794;7.054;2023-09-08T00:49:57;8.70;;;6.70;;
72924;SDS011;61070;50.794;7.054;2023-09-08T00:50:58;9.55;;;6.55;;
72924;SDS011;61070;50.794;7.054;2023-09-08T00:51:59;8.82;;;6.72;;
72924;SDS011;61070;50.794;7.054;2023-09-08T00:53:00;11.30;;;6.20;;
72924;SDS011;61070;50.794;7.054;2023-09-08T00:54:00;12.02;;;6.78;;
72924;SDS011;61070;50.794;7.054;2023-09-08T00:55:01;8.18;;;5.95;;
72924;SDS011;61070;50.794;7.054;2023-09-08T00:56:01;11.93;;;6.63;;
72924;SDS011;61070;50.794;7.054;2023-09-08T00:57:02;6.95;;;5.63;;
72924;SDS011;61070;50.794;7.054;2023-09-08T00:58:05;10.70;;;6.35;;
72924;SDS011;61070;50.794;7.054;2023-09-08T00:59:06;9.82;;;6.28;;
72924;SDS011;61070;50.794;7.054;2023-09-08T01:00:07;12.27;;;6.82;;
72924;SDS011;61070;50.794;7.054;2023-09-08T01:01:08;8.80;;;6.57;;
72924;SDS011;61070;50.794;7.054;2023-09-08T01:02:08;11.80;;;6.95;;
72924;SDS011;61070;50.794;7.054;2023-09-08T01:03:09;12.48;;;6.93;;
72924;SDS011;61070;50.794;7.054;2023-09-08T01:04:09;11.65;;;6.25;;
72924;SDS011;61070;50.794;7.054;2023-09-08T01:05:10;10.80;;;6.47;;
72924;SDS011;61070;50.794;7.054;2023-09-08T01:06:11;9.38;;;6.45;;
72924;SDS011;61070;50.794;7.054;2023-09-08T01:07:12;9.75;;;6.40;;
72924;SDS011;61070;50.794;7.054;2023-09-08T01:08:13;14.90;;;6.70;;
72924;SDS011;61070;50.794;7.054;2023-09-08T01:09:15;9.48;;;7.07;;
72924;SDS011;61070;50.794;7.054;2023-09-08T01:10:15;12.00;;;7.20;;
72924;SDS011;61070;50.794;7.054;2023-09-08T01:11:17;9.85;;;7.05;;
72924;SDS011;61070;50.794;7.054;2023-09-08T01:12:19;9.27;;;6.20;;
72924;SDS011;61070;50.794;7.054;2023-09-08T01:13:19;7.82;;;5.80;;
72924;SDS011;61070;50.794;7.054;2023-09-08T01:14:19;11.30;;;6.03;;
72924;SDS011;61070;50.794;7.054;2023-09-08T01:15:20;8.77;;;6.60;;
72924;SDS011;61070;50.794;7.054;2023-09-08T01:16:20;8.13;;;6.43;;
72924;SDS011;61070;50.794;7.054;2023-09-08T01:17:21;7.78;;;6.38;;
72924;SDS011;61070;50.794;7.054;2023-09-08T01:18:21;11.50;;;7.05;;
72924;SDS011;61070;50.794;7.054;2023-09-08T01:19:21;9.05;;;6.65;;
72924;SDS011;61070;50.794;7.054;2023-09-08T01:20:22;12.20;;;6.65;;
72924;SDS011;61070;50.794;7.054;2023-09-08T01:25:50;14.85;;;7.63;;
72924;SDS011;61070;50.794;7.054;2023-09-08T01:26:54;11.30;;;7.07;;
72924;SDS011;61070;50.794;7.054;2023-09-08T01:27:55;10.80;;;6.72;;
72924;SDS011;61070;50.794;7.054;2023-09-08T01:29:00;8.18;;;6.57;;
72924;SDS011;61070;50.794;7.054;2023-09-08T01:30:02;12.48;;;6.93;;
72924;SDS011;61070;50.794;7.054;2023-09-08T01:31:05;12.65;;;7.15;;
72924;SDS011;61070;50.794;7.054;2023-09-08T01:32:05;11.52;;;6.70;;
72924;SDS011;61070;50.794;7.054;2023-09-08T01:33:06;12.65;;;7.47;;
72924;SDS011;61070;50.794;7.054;2023-09-08T01:34:07;12.18;;;7.43;;
72924;SDS011;61070;50.794;7.054;2023-09-08T01:35:08;10.13;;;7.45;;
72924;SDS011;61070;50.794;7.054;2023-09-08T01:36:09;15.63;;;7.75;;
72924;SDS011;61070;50.794;7.054;2023-09-08T01:37:10;8.75;;;6.50;;
72924;SDS011;61070;50.794;7.054;2023-09-08T01:38:11;9.20;;;6.43;;
72924;SDS011;61070;50.794;7.054;2023-09-08T01:39:11;9.40;;;6.88;;
72924;SDS011;61070;50.794;7.054;2023-09-08T01:40:11;12.55;;;6.95;;
72924;SDS011;61070;50.794;7.054;2023-09-08T01:41:12;9.73;;;6.38;;
72924;SDS011;61070;50.794;7.054;2023-09-08T01:42:12;13.68;;;7.20;;
72924;SDS011;61070;50.794;7.054;2023-09-08T01:43:12;14.40;;;7.68;;
72924;SDS011;61070;50.794;7.054;2023-09-08T01:44:12;10.57;;;7.47;;
72924;SDS011;61070;50.794;7.054;2023-09-08T01:45:13;9.55;;;6.95;;
72924;SDS011;61070;50.794;7.054;2023-09-08T01:46:13;11.48;;;6.55;;
72924;SDS011;61070;50.794;7.054;2023-09-08T01:47:13;8.98;;;6.68;;
72924;SDS011;61070;50.794;7.054;2023-09-08T01:48:14;12.73;;;7.53;;
72924;SDS011;61070;50.794;7.054;2023-09-08T01:49:14;10.27;;;7.07;;
72924;SDS011;61070;50.794;7.054;2023-09-08T01:50:14;10.02;;;6.68;;
72924;SDS011;61070;50.794;7.054;2023-09-08T01:51:21;9.45;;;6.65;;
72924;SDS011;61070;50.794;7.054;2023-09-08T01:52:21;8.60;;;7.05;;
72924;SDS011;61070;50.794;7.054;2023-09-08T01:53:21;10.45;;;6.63;;
72924;SDS011;61070;50.794;7.054;2023-09-08T01:54:22;12.00;;;7.20;;
72924;SDS011;61070;50.794;7.054;2023-09-08T01:55:22;10.25;;;7.20;;
72924;SDS011;61070;50.794;7.054;2023-09-08T01:56:22;10.00;;;6.97;;
72924;SDS011;61070;50.794;7.054;2023-09-08T01:57:23;8.40;;;6.80;;
72924;SDS011;61070;50.794;7.054;2023-09-08T01:58:23;9.43;;;6.95;;
72924;SDS011;61070;50.794;7.054;2023-09-08T01:59:23;10.07;;;7.32;;
72924;SDS011;61070;50.794;7.054;2023-09-08T02:00:23;12.38;;;7.22;;
72924;SDS011;61070;50.794;7.054;2023-09-08T02:01:24;9.02;;;7.15;;
72924;SDS011;61070;50.794;7.054;2023-09-08T02:02:24;13.48;;;7.90;;
72924;SDS011;61070;50.794;7.054;2023-09-08T02:03:24;10.55;;;6.63;;
72924;SDS011;61070;50.794;7.054;2023-09-08T02:04:24;8.38;;;6.45;;
72924;SDS011;61070;50.794;7.054;2023-09-08T02:05:25;11.13;;;7.88;;
72924;SDS011;61070;50.794;7.054;2023-09-08T02:06:26;11.70;;;7.03;;
72924;SDS011;61070;50.794;7.054;2023-09-08T02:07:26;11.00;;;7.53;;
72924;SDS011;61070;50.794;7.054;2023-09-08T02:08:27;8.80;;;7.10;;
72924;SDS011;61070;50.794;7.054;2023-09-08T02:09:34;9.23;;;6.55;;
72924;SDS011;61070;50.794;7.054;2023-09-08T02:10:35;11.18;;;6.63;;
72924;SDS011;61070;50.794;7.054;2023-09-08T02:11:36;12.18;;;6.85;;
72924;SDS011;61070;50.794;7.054;2023-09-08T02:12:36;11.52;;;7.22;;
72924;SDS011;61070;50.794;7.054;2023-09-08T02:13:36;14.55;;;7.40;;
72924;SDS011;61070;50.794;7.054;2023-09-08T02:14:36;9.30;;;6.47;;
72924;SDS011;61070;50.794;7.054;2023-09-08T02:15:37;15.57;;;7.95;;
72924;SDS011;61070;50.794;7.054;2023-09-08T02:16:38;12.13;;;7.75;;
72924;SDS011;61070;50.794;7.054;2023-09-08T02:17:38;11.77;;;7.88;;
72924;SDS011;61070;50.794;7.054;2023-09-08T02:18:38;13.95;;;7.68;;
72924;SDS011;61070;50.794;7.054;2023-09-08T02:19:38;12.27;;;7.60;;
72924;SDS011;61070;50.794;7.054;2023-09-08T02:20:39;16.15;;;7.75;;
72924;SDS011;61070;50.794;7.054;2023-09-08T02:21:39;10.45;;;7.75;;
72924;SDS011;61070;50.794;7.054;2023-09-08T02:22:39;11.25;;;7.82;;
72924;SDS011;61070;50.794;7.054;2023-09-08T02:23:40;13.25;;;7.80;;
72924;SDS011;61070;50.794;7.054;2023-09-08T02:24:40;14.15;;;7.53;;
72924;SDS011;61070;50.794;7.054;2023-09-08T02:25:40;12.10;;;7.95;;
72924;SDS011;61070;50.794;7.054;2023-09-08T02:26:41;10.07;;;6.95;;
72924;SDS011;61070;50.794;7.054;2023-09-08T02:27:41;11.90;;;8.27;;
72924;SDS011;61070;50.794;7.054;2023-09-08T02:28:42;15.45;;;7.82;;
72924;SDS011;61070;50.794;7.054;2023-09-08T02:29:42;9.25;;;7.00;;
72924;SDS011;61070;50.794;7.054;2023-09-08T02:30:42;14.63;;;7.63;;
72924;SDS011;61070;50.794;7.054;2023-09-08T02:31:42;11.68;;;6.97;;
72924;SDS011;61070;50.794;7.054;2023-09-08T02:32:44;13.68;;;7.95;;
72924;SDS011;61070;50.794;7.054;2023-09-08T02:33:45;14.25;;;7.55;;
72924;SDS011;61070;50.794;7.054;2023-09-08T02:34:45;14.95;;;8.18;;
72924;SDS011;61070;50.794;7.054;2023-09-08T02:35:48;15.32;;;7.88;;
72924;SDS011;61070;50.794;7.054;2023-09-08T02:36:48;11.52;;;7.38;;
72924;SDS011;61070;50.794;7.054;2023-09-08T02:37:50;10.55;;;7.55;;
72924;SDS011;61070;50.794;7.054;2023-09-08T02:38:51;10.98;;;7.55;;
72924;SDS011;61070;50.794;7.054;2023-09-08T02:39:55;10.40;;;8.32;;
72924;SDS011;61070;50.794;7.054;2023-09-08T02:40:55;13.55;;;7.93;;
72924;SDS011;61070;50.794;7.054;2023-09-08T02:41:55;16.23;;;7.18;;
72924;SDS011;61070;50.794;7.054;2023-09-08T02:42:55;11.52;;;8.07;;
72924;SDS011;61070;50.794;7.054;2023-09-08T02:43:56;11.73;;;7.90;;
72924;SDS011;61070;50.794;7.054;2023-09-08T02:44:56;12.63;;;7.93;;
72924;SDS011;61070;50.794;7.054;2023-09-08T02:45:56;11.80;;;8.55;;
72924;SDS011;61070;50.794;7.054;2023-09-08T02:46:56;12.68;;;8.55;;
72924;SDS011;61070;50.794;7.054;2023-09-08T02:47:57;13.45;;;8.50;;
72924;SDS011;61070;50.794;7.054;2023-09-08T02:48:57;10.52;;;7.85;;
72924;SDS011;61070;50.794;7.054;2023-09-08T02:49:57;12.07;;;7.82;;
72924;SDS011;61070;50.794;7.054;2023-09-08T02:50:58;10.43;;;7.63;;
72924;SDS011;61070;50.794;7.054;2023-09-08T02:51:58;10.98;;;8.18;;
72924;SDS011;61070;50.794;7.054;2023-09-08T02:52:58;9.60;;;7.88;;
72924;SDS011;61070;50.794;7.054;2023-09-08T02:53:58;10.80;;;7.63;;
72924;SDS011;61070;50.794;7.054;2023-09-08T02:54:59;9.55;;;7.35;;
72924;SDS011;61070;50.794;7.054;2023-09-08T02:55:59;11.88;;;7.90;;
72924;SDS011;61070;50.794;7.054;2023-09-08T02:57:00;13.18;;;7.95;;
72924;SDS011;61070;50.794;7.054;2023-09-08T02:58:00;12.93;;;8.20;;
72924;SDS011;61070;50.794;7.054;2023-09-08T02:59:00;12.77;;;8.02;;
72924;SDS011;61070;50.794;7.054;2023-09-08T03:00:01;12.88;;;8.48;;
72924;SDS011;61070;50.794;7.054;2023-09-08T03:01:11;14.52;;;8.88;;
72924;SDS011;61070;50.794;7.054;2023-09-08T03:02:15;16.08;;;7.82;;
72924;SDS011;61070;50.794;7.054;2023-09-08T03:03:15;13.90;;;8.10;;
72924;SDS011;61070;50.794;7.054;2023-09-08T03:04:15;12.32;;;8.18;;
72924;SDS011;61070;50.794;7.054;2023-09-08T03:05:16;13.07;;;7.72;;
72924;SDS011;61070;50.794;7.054;2023-09-08T03:06:18;12.43;;;8.02;;
72924;SDS011;61070;50.794;7.054;2023-09-08T03:07:19;10.90;;;7.47;;
72924;SDS011;61070;50.794;7.054;2023-09-08T03:08:19;11.05;;;7.28;;
72924;SDS011;61070;50.794;7.054;2023-09-08T03:09:19;13.63;;;8.15;;
72924;SDS011;61070;50.794;7.054;2023-09-08T03:10:20;10.90;;;7.30;;
72924;SDS011;61070;50.794;7.054;2023-09-08T03:11:20;10.43;;;7.65;;
72924;SDS011;61070;50.794;7.054;2023-09-08T03:12:20;14.77;;;7.22;;
72924;SDS011;61070;50.794;7.054;2023-09-08T03:13:20;11.43;;;7.60;;
72924;SDS011;61070;50.794;7.054;2023-09-08T03:14:21;8.70;;;7.22;;
72924;SDS011;61070;50.794;7.054;2023-09-08T03:15:21;10.30;;;7.75;;
72924;SDS011;61070;50.794;7.054;2023-09-08T03:16:21;12.38;;;6.78;;
72924;SDS011;61070;50.794;7.054;2023-09-08T03:17:21;18.98;;;7.07;;
72924;SDS011;61070;50.794;7.054;2023-09-08T03:18:22;11.63;;;8.02;;
72924;SDS011;61070;50.794;7.054;2023-09-08T03:19:22;8.88;;;7.25;;
72924;SDS011;61070;50.794;7.054;2023-09-08T03:20:23;8.50;;;6.95;;
72924;SDS011;61070;50.794;7.054;2023-09-08T03:21:23;10.32;;;7.82;;
72924;SDS011;61070;50.794;7.054;2023-09-08T03:22:23;13.32;;;7.25;;
72924;SDS011;61070;50.794;7.054;2023-09-08T03:23:24;12.10;;;7.15;;
72924;SDS011;61070;50.794;7.054;2023-09-08T03:24:25;11.15;;;7.35;;
72924;SDS011;61070;50.794;7.054;2023-09-08T03:25:25;18.05;;;8.43;;
72924;SDS011;61070;50.794;7.054;2023-09-08T03:26:25;12.73;;;7.90;;
72924;SDS011;61070;50.794;7.054;2023-09-08T03:27:25;8.43;;;6.95;;
72924;SDS011;61070;50.794;7.054;2023-09-08T03:28:26;9.75;;;7.28;;
72924;SDS011;61070;50.794;7.054;2023-09-08T03:29:26;14.40;;;7.95;;
72924;SDS011;61070;50.794;7.054;2023-09-08T03:30:26;9.63;;;6.80;;
72924;SDS011;61070;50.794;7.054;2023-09-08T03:31:26;11.80;;;6.68;;
72924;SDS011;61070;50.794;7.054;2023-09-08T03:32:27;10.55;;;7.03;;
72924;SDS011;61070;50.794;7.054;2023-09-08T03:33:28;10.05;;;7.05;;
72924;SDS011;61070;50.794;7.054;2023-09-08T03:34:29;13.07;;;7.68;;
72924;SDS011;61070;50.794;7.054;2023-09-08T03:35:29;12.52;;;7.25;;
72924;SDS011;61070;50.794;7.054;2023-09-08T03:36:29;11.48;;;7.22;;
72924;SDS011;61070;50.794;7.054;2023-09-08T03:37:30;9.68;;;7.78;;
72924;SDS011;61070;50.794;7.054;2023-09-08T03:38:31;10.60;;;7.85;;
72924;SDS011;61070;50.794;7.054;2023-09-08T03:39:31;11.70;;;7.95;;
72924;SDS011;61070;50.794;7.054;2023-09-08T03:40:31;9.20;;;6.80;;
72924;SDS011;61070;50.794;7.054;2023-09-08T03:41:32;10.70;;;7.82;;
72924;SDS011;61070;50.794;7.054;2023-09-08T03:42:32;14.60;;;8.02;;
72924;SDS011;61070;50.794;7.054;2023-09-08T03:43:32;13.70;;;7.60;;
72924;SDS011;61070;50.794;7.054;2023-09-08T03:44:32;16.92;;;7.55;;
72924;SDS011;61070;50.794;7.054;2023-09-08T03:45:33;12.68;;;7.93;;
72924;SDS011;61070;50.794;7.054;2023-09-08T03:46:33;9.93;;;8.15;;
72924;SDS011;61070;50.794;7.054;2023-09-08T03:47:33;13.45;;;8.27;;
72924;SDS011;61070;50.794;7.054;2023-09-08T03:48:33;14.23;;;8.65;;
72924;SDS011;61070;50.794;7.054;2023-09-08T03:49:34;12.35;;;8.02;;
72924;SDS011;61070;50.794;7.054;2023-09-08T03:50:34;13.63;;;8.15;;
72924;SDS011;61070;50.794;7.054;2023-09-08T03:51:35;12.75;;;8.73;;
72924;SDS011;61070;50.794;7.054;2023-09-08T03:52:35;13.05;;;8.70;;
72924;SDS011;61070;50.794;7.054;2023-09-08T03:53:35;11.75;;;8.43;;
72924;SDS011;61070;50.794;7.054;2023-09-08T03:54:36;14.20;;;8.15;;
72924;SDS011;61070;50.794;7.054;2023-09-08T03:55:37;10.85;;;8.05;;
72924;SDS011;61070;50.794;7.054;2023-09-08T03:56:37;16.48;;;8.82;;
72924;SDS011;61070;50.794;7.054;2023-09-08T03:57:37;16.08;;;8.77;;
72924;SDS011;61070;50.794;7.054;2023-09-08T03:58:38;10.50;;;7.53;;
72924;SDS011;61070;50.794;7.054;2023-09-08T03:59:38;13.52;;;8.75;;
72924;SDS011;61070;50.794;7.054;2023-09-08T04:00:38;12.52;;;8.07;;
72924;SDS011;61070;50.794;7.054;2023-09-08T04:01:38;12.65;;;7.97;;
72924;SDS011;61070;50.794;7.054;2023-09-08T04:02:39;10.45;;;7.38;;
72924;SDS011;61070;50.794;7.054;2023-09-08T04:03:39;10.98;;;7.40;;
72924;SDS011;61070;50.794;7.054;2023-09-08T04:04:39;10.15;;;7.53;;
72924;SDS011;61070;50.794;7.054;2023-09-08T04:05:39;9.93;;;6.88;;
72924;SDS011;61070;50.794;7.054;2023-09-08T04:06:41;10.38;;;7.18;;
72924;SDS011;61070;50.794;7.054;2023-09-08T04:07:41;13.15;;;7.40;;
72924;SDS011;61070;50.794;7.054;2023-09-08T04:08:42;9.75;;;7.18;;
72924;SDS011;61070;50.794;7.054;2023-09-08T04:09:42;12.48;;;7.82;;
72924;SDS011;61070;50.794;7.054;2023-09-08T04:10:42;13.05;;;7.43;;
72924;SDS011;61070;50.794;7.054;2023-09-08T04:11:42;11.85;;;7.40;;
72924;SDS011;61070;50.794;7.054;2023-09-08T04:12:43;10.68;;;6.93;;
72924;SDS011;61070;50.794;7.054;2023-09-08T04:13:44;10.35;;;7.10;;
72924;SDS011;61070;50.794;7.054;2023-09-08T04:14:44;9.10;;;7.03;;
72924;SDS011;61070;50.794;7.054;2023-09-08T04:15:44;10.68;;;7.15;;
72924;SDS011;61070;50.794;7.054;2023-09-08T04:16:45;9.25;;;6.53;;
72924;SDS011;61070;50.794;7.054;2023-09-08T04:17:45;16.40;;;7.55;;
72924;SDS011;61070;50.794;7.054;2023-09-08T04:18:45;9.65;;;6.82;;
72924;SDS011;61070;50.794;7.054;2023-09-08T04:19:45;12.35;;;6.53;;
72924;SDS011;61070;50.794;7.054;2023-09-08T04:20:46;9.70;;;6.68;;
72924;SDS011;61070;50.794;7.054;2023-09-08T04:21:46;16.60;;;7.03;;
72924;SDS011;61070;50.794;7.054;2023-09-08T04:22:46;13.18;;;7.03;;
72924;SDS011;61070;50.794;7.054;2023-09-08T04:23:47;14.45;;;7.38;;
72924;SDS011;61070;50.794;7.054;2023-09-08T04:24:47;8.32;;;6.10;;
72924;SDS011;61070;50.794;7.054;2023-09-08T04:25:48;12.93;;;7.05;;
72924;SDS011;61070;50.794;7.054;2023-09-08T04:26:48;10.90;;;7.45;;
72924;SDS011;61070;50.794;7.054;2023-09-08T04:27:48;9.93;;;7.07;;
72924;SDS011;61070;50.794;7.054;2023-09-08T04:28:49;9.13;;;7.00;;
72924;SDS011;61070;50.794;7.054;2023-09-08T04:29:49;11.82;;;7.47;;
72924;SDS011;61070;50.794;7.054;2023-09-08T04:30:49;14.18;;;7.45;;
72924;SDS011;61070;50.794;7.054;2023-09-08T04:31:49;13.05;;;6.47;;
72924;SDS011;61070;50.794;7.054;2023-09-08T04:32:50;10.43;;;7.38;;
72924;SDS011;61070;50.794;7.054;2023-09-08T04:33:50;11.45;;;7.18;;
72924;SDS011;61070;50.794;7.054;2023-09-08T04:34:50;13.65;;;7.35;;
72924;SDS011;61070;50.794;7.054;2023-09-08T04:35:50;10.25;;;7.22;;
72924;SDS011;61070;50.794;7.054;2023-09-08T04:36:51;11.98;;;7.28;;
72924;SDS011;61070;50.794;7.054;2023-09-08T04:37:51;10.02;;;7.15;;
72924;SDS011;61070;50.794;7.054;2023-09-08T04:38:51;13.18;;;6.50;;
72924;SDS011;61070;50.794;7.054;2023-09-08T04:39:52;8.48;;;6.50;;
72924;SDS011;61070;50.794;7.054;2023-09-08T04:40:52;12.18;;;6.97;;
72924;SDS011;61070;50.794;7.054;2023-09-08T04:41:52;11.85;;;6.97;;
72924;SDS011;61070;50.794;7.054;2023-09-08T04:42:52;11.02;;;7.57;;
72924;SDS011;61070;50.794;7.054;2023-09-08T04:43:53;10.38;;;6.63;;
72924;SDS011;61070;50.794;7.054;2023-09-08T04:44:54;11.18;;;6.50;;
72924;SDS011;61070;50.794;7.054;2023-09-08T04:45:54;13.40;;;7.93;;
72924;SDS011;61070;50.794;7.054;2023-09-08T04:46:54;11.48;;;7.03;;
72924;SDS011;61070;50.794;7.054;2023-09-08T04:47:55;10.70;;;6.72;;
72924;SDS011;61070;50.794;7.054;2023-09-08T04:48:55;10.45;;;6.55;;
72924;SDS011;61070;50.794;7.054;2023-09-08T04:49:55;9.40;;;6.28;;
72924;SDS011;61070;50.794;7.054;2023-09-08T04:50:56;8.85;;;6.90;;
72924;SDS011;61070;50.794;7.054;2023-09-08T04:51:57;8.80;;;6.93;;
72924;SDS011;61070;50.794;7.054;2023-09-08T04:52:57;8.00;;;6.75;;
72924;SDS011;61070;50.794;7.054;2023-09-08T04:53:57;12.60;;;6.70;;
72924;SDS011;61070;50.794;7.054;2023-09-08T04:54:58;13.35;;;6.30;;
72924;SDS011;61070;50.794;7.054;2023-09-08T04:55:58;8.32;;;6.15;;
72924;SDS011;61070;50.794;7.054;2023-09-08T04:56:58;12.50;;;6.97;;
72924;SDS011;61070;50.794;7.054;2023-09-08T04:57:58;8.05;;;6.57;;
72924;SDS011;61070;50.794;7.054;2023-09-08T04:58:59;10.35;;;7.60;;
72924;SDS011;61070;50.794;7.054;2023-09-08T05:00:01;12.43;;;8.07;;
72924;SDS011;61070;50.794;7.054;2023-09-08T05:01:02;9.63;;;6.30;;
72924;SDS011;61070;50.794;7.054;2023-09-08T05:02:02;10.35;;;6.40;;
72924;SDS011;61070;50.794;7.054;2023-09-08T05:03:03;11.93;;;7.13;;
72924;SDS011;61070;50.794;7.054;2023-09-08T05:04:03;10.13;;;7.82;;
72924;SDS011;61070;50.794;7.054;2023-09-08T05:05:04;13.00;;;7.30;;
72924;SDS011;61070;50.794;7.054;2023-09-08T05:06:05;10.77;;;6.82;;
72924;SDS011;61070;50.794;7.054;2023-09-08T05:07:05;8.57;;;7.00;;
72924;SDS011;61070;50.794;7.054;2023-09-08T05:08:05;9.30;;;7.03;;
72924;SDS011;61070;50.794;7.054;2023-09-08T05:09:05;10.63;;;6.75;;
72924;SDS011;61070;50.794;7.054;2023-09-08T05:10:07;11.30;;;7.20;;
72924;SDS011;61070;50.794;7.054;2023-09-08T05:11:07;7.80;;;6.18;;
72924;SDS011;61070;50.794;7.054;2023-09-08T05:12:07;8.30;;;6.63;;
72924;SDS011;61070;50.794;7.054;2023-09-08T05:13:08;8.55;;;7.00;;
72924;SDS011;61070;50.794;7.054;2023-09-08T05:14:08;12.38;;;7.13;;
72924;SDS011;61070;50.794;7.054;2023-09-08T05:15:08;9.73;;;6.80;;
72924;SDS011;61070;50.794;7.054;2023-09-08T05:16:14;9.77;;;6.45;;
72924;SDS011;61070;50.794;7.054;2023-09-08T05:17:15;11.02;;;6.43;;
72924;SDS011;61070;50.794;7.054;2023-09-08T05:18:15;15.85;;;6.63;;
72924;SDS011;61070;50.794;7.054;2023-09-08T05:19:15;11.18;;;7.25;;
72924;SDS011;61070;50.794;7.054;2023-09-08T05:20:16;11.02;;;7.22;;
72924;SDS011;61070;50.794;7.054;2023-09-08T05:21:16;10.35;;;7.15;;
72924;SDS011;61070;50.794;7.054;2023-09-08T05:22:16;12.18;;;7.15;;
72924;SDS011;61070;50.794;7.054;2023-09-08T05:23:17;14.70;;;7.00;;
72924;SDS011;61070;50.794;7.054;2023-09-08T05:24:17;11.38;;;6.85;;
72924;SDS011;61070;50.794;7.054;2023-09-08T05:25:18;12.70;;;7.68;;
72924;SDS011;61070;50.794;7.054;2023-09-08T05:26:18;10.02;;;6.47;;
72924;SDS011;61070;50.794;7.054;2023-09-08T05:27:18;11.30;;;6.32;;
72924;SDS011;61070;50.794;7.054;2023-09-08T05:28:19;14.00;;;7.40;;
72924;SDS011;61070;50.794;7.054;2023-09-08T05:29:19;11.48;;;6.70;;
72924;SDS011;61070;50.794;7.054;2023-09-08T05:30:19;10.05;;;6.38;;
72924;SDS011;61070;50.794;7.054;2023-09-08T05:31:19;13.02;;;7.68;;
72924;SDS011;61070;50.794;7.054;2023-09-08T05:32:20;9.40;;;6.90;;
72924;SDS011;61070;50.794;7.054;2023-09-08T05:33:20;10.38;;;6.38;;
72924;SDS011;61070;50.794;7.054;2023-09-08T05:34:21;15.07;;;6.55;;
72924;SDS011;61070;50.794;7.054;2023-09-08T05:35:21;14.23;;;7.88;;
72924;SDS011;61070;50.794;7.054;2023-09-08T05:36:21;11.43;;;7.15;;
72924;SDS011;61070;50.794;7.054;2023-09-08T05:37:22;11.55;;;7.45;;
72924;SDS011;61070;50.794;7.054;2023-09-08T05:38:22;14.15;;;7.00;;
72924;SDS011;61070;50.794;7.054;2023-09-08T05:39:24;11.18;;;7.20;;
72924;SDS011;61070;50.794;7.054;2023-09-08T05:40:25;12.70;;;7.63;;
72924;SDS011;61070;50.794;7.054;2023-09-08T05:41:26;12.48;;;7.45;;
72924;SDS011;61070;50.794;7.054;2023-09-08T05:42:26;8.60;;;6.20;;
72924;SDS011;61070;50.794;7.054;2023-09-08T05:43:26;11.32;;;6.47;;
72924;SDS011;61070;50.794;7.054;2023-09-08T05:44:27;13.05;;;6.93;;
72924;SDS011;61070;50.794;7.054;2023-09-08T05:45:27;13.07;;;7.82;;
72924;SDS011;61070;50.794;7.054;2023-09-08T05:46:27;11.40;;;6.78;;
72924;SDS011;61070;50.794;7.054;2023-09-08T05:47:28;10.60;;;7.03;;
72924;SDS011;61070;50.794;7.054;2023-09-08T05:48:28;12.85;;;7.60;;
72924;SDS011;61070;50.794;7.054;2023-09-08T05:49:28;7.47;;;6.22;;
72924;SDS011;61070;50.794;7.054;2023-09-08T05:50:28;10.70;;;6.50;;
72924;SDS011;61070;50.794;7.054;2023-09-08T05:51:29;9.20;;;6.78;;
72924;SDS011;61070;50.794;7.054;2023-09-08T05:52:30;14.88;;;7.10;;
72924;SDS011;61070;50.794;7.054;2023-09-08T05:53:33;12.93;;;7.05;;
72924;SDS011;61070;50.794;7.054;2023-09-08T05:54:35;12.48;;;6.82;;
72924;SDS011;61070;50.794;7.054;2023-09-08T05:55:36;13.05;;;6.90;;
72924;SDS011;61070;50.794;7.054;2023-09-08T05:56:36;13.60;;;6.43;;
72924;SDS011;61070;50.794;7.054;2023-09-08T05:57:37;11.75;;;6.90;;
72924;SDS011;61070;50.794;7.054;2023-09-08T05:58:38;9.63;;;7.18;;
72924;SDS011;61070;50.794;7.054;2023-09-08T05:59:38;12.18;;;6.57;;
72924;SDS011;61070;50.794;7.054;2023-09-08T06:00:39;11.50;;;7.05;;
72924;SDS011;61070;50.794;7.054;2023-09-08T06:01:39;12.75;;;6.70;;
72924;SDS011;61070;50.794;7.054;2023-09-08T06:02:40;9.20;;;6.43;;
72924;SDS011;61070;50.794;7.054;2023-09-08T06:03:40;10.98;;;6.07;;
72924;SDS011;61070;50.794;7.054;2023-09-08T06:04:40;10.23;;;6.88;;
72924;SDS011;61070;50.794;7.054;2023-09-08T06:05:41;11.18;;;6.78;;